sensor_id;sensor_type;location;lat;lon;timestamp;temperature;humidity
70708;SHT30;58277;47.316;18.908;2023-04-27T00:01:38;5.56;59.88
70708;SHT30;58277;47.316;18.908;2023-04-27T00:04:02;5.61;59.49
70708;SHT30;58277;47.316;18.908;2023-04-27T00:06:26;5.54;59.63
70708;SHT30;58277;47.316;18.908;2023-04-27T00:08:49;5.51;59.91
70708;SHT30;58277;47.316;18.908;2023-04-27T00:11:11;5.56;59.76
70708;SHT30;58277;47.316;18.908;2023-04-27T00:13:34;5.48;59.89
70708;SHT30;58277;47.316;18.908;2023-04-27T00:15:57;5.48;59.95
70708;SHT30;58277;47.316;18.908;2023-04-27T00:18:22;5.56;59.79
70708;SHT30;58277;47.316;18.908;2023-04-27T00:20:45;5.60;59.98
70708;SHT30;58277;47.316;18.908;2023-04-27T00:23:08;5.51;60.20
70708;SHT30;58277;47.316;18.908;2023-04-27T00:25:30;5.42;60.88
70708;SHT30;58277;47.316;18.908;2023-04-27T00:27:53;5.42;60.84
70708;SHT30;58277;47.316;18.908;2023-04-27T00:30:16;5.39;60.42
70708;SHT30;58277;47.316;18.908;2023-04-27T00:32:39;5.33;60.95
70708;SHT30;58277;47.316;18.908;2023-04-27T00:35:02;5.25;61.31
70708;SHT30;58277;47.316;18.908;2023-04-27T00:37:25;5.20;61.19
70708;SHT30;58277;47.316;18.908;2023-04-27T00:39:48;5.12;61.99
70708;SHT30;58277;47.316;18.908;2023-04-27T00:42:10;4.98;62.37
70708;SHT30;58277;47.316;18.908;2023-04-27T00:44:36;5.04;62.21
70708;SHT30;58277;47.316;18.908;2023-04-27T00:47:01;5.04;62.68
70708;SHT30;58277;47.316;18.908;2023-04-27T00:49:25;5.00;62.86
70708;SHT30;58277;47.316;18.908;2023-04-27T00:51:48;4.95;62.55
70708;SHT30;58277;47.316;18.908;2023-04-27T00:54:12;4.95;63.27
70708;SHT30;58277;47.316;18.908;2023-04-27T00:56:35;4.91;63.12
70708;SHT30;58277;47.316;18.908;2023-04-27T00:58:58;4.88;63.27
70708;SHT30;58277;47.316;18.908;2023-04-27T01:01:20;4.84;63.43
70708;SHT30;58277;47.316;18.908;2023-04-27T01:03:45;4.78;63.55
70708;SHT30;58277;47.316;18.908;2023-04-27T01:06:08;4.85;63.32
70708;SHT30;58277;47.316;18.908;2023-04-27T01:08:31;4.81;63.63
70708;SHT30;58277;47.316;18.908;2023-04-27T01:10:56;4.79;63.52
70708;SHT30;58277;47.316;18.908;2023-04-27T01:13:19;4.74;63.94
70708;SHT30;58277;47.316;18.908;2023-04-27T01:15:42;4.68;63.89
70708;SHT30;58277;47.316;18.908;2023-04-27T01:18:05;4.72;63.96
70708;SHT30;58277;47.316;18.908;2023-04-27T01:20:28;4.68;63.96
70708;SHT30;58277;47.316;18.908;2023-04-27T01:22:52;4.62;64.37
70708;SHT30;58277;47.316;18.908;2023-04-27T01:25:15;4.53;64.75
70708;SHT30;58277;47.316;18.908;2023-04-27T01:27:37;4.57;64.55
70708;SHT30;58277;47.316;18.908;2023-04-27T01:30:00;4.57;64.50
70708;SHT30;58277;47.316;18.908;2023-04-27T01:32:23;4.64;64.50
70708;SHT30;58277;47.316;18.908;2023-04-27T01:34:47;4.65;64.42
70708;SHT30;58277;47.316;18.908;2023-04-27T01:37:11;4.61;64.38
70708;SHT30;58277;47.316;18.908;2023-04-27T01:39:34;4.62;64.55
70708;SHT30;58277;47.316;18.908;2023-04-27T01:41:57;4.57;64.43
70708;SHT30;58277;47.316;18.908;2023-04-27T01:44:20;4.60;64.75
70708;SHT30;58277;47.316;18.908;2023-04-27T01:46:44;4.49;64.73
70708;SHT30;58277;47.316;18.908;2023-04-27T01:49:07;4.58;64.69
70708;SHT30;58277;47.316;18.908;2023-04-27T01:51:30;4.54;64.63
70708;SHT30;58277;47.316;18.908;2023-04-27T01:53:54;4.47;65.35
70708;SHT30;58277;47.316;18.908;2023-04-27T01:56:17;4.44;65.39
70708;SHT30;58277;47.316;18.908;2023-04-27T01:58:40;4.43;65.57
70708;SHT30;58277;47.316;18.908;2023-04-27T02:01:03;4.39;65.88
70708;SHT30;58277;47.316;18.908;2023-04-27T02:03:25;4.33;65.77
70708;SHT30;58277;47.316;18.908;2023-04-27T02:05:48;4.29;66.43
70708;SHT30;58277;47.316;18.908;2023-04-27T02:08:11;4.32;66.05
70708;SHT30;58277;47.316;18.908;2023-04-27T02:10:35;4.33;66.00
70708;SHT30;58277;47.316;18.908;2023-04-27T02:12:58;4.37;65.93
70708;SHT30;58277;47.316;18.908;2023-04-27T02:15:20;4.41;65.98
70708;SHT30;58277;47.316;18.908;2023-04-27T02:17:43;4.40;65.93
70708;SHT30;58277;47.316;18.908;2023-04-27T02:20:07;4.33;66.25
70708;SHT30;58277;47.316;18.908;2023-04-27T02:22:31;4.32;66.25
70708;SHT30;58277;47.316;18.908;2023-04-27T02:24:54;4.28;66.38
70708;SHT30;58277;47.316;18.908;2023-04-27T02:27:17;4.26;66.48
70708;SHT30;58277;47.316;18.908;2023-04-27T02:29:40;4.33;66.25
70708;SHT30;58277;47.316;18.908;2023-04-27T02:32:06;4.30;66.35
70708;SHT30;58277;47.316;18.908;2023-04-27T02:34:29;4.32;66.53
70708;SHT30;58277;47.316;18.908;2023-04-27T02:36:53;4.22;66.48
70708;SHT30;58277;47.316;18.908;2023-04-27T02:39:15;4.19;66.82
70708;SHT30;58277;47.316;18.908;2023-04-27T02:41:38;4.30;66.06
70708;SHT30;58277;47.316;18.908;2023-04-27T02:44:01;4.40;66.10
70708;SHT30;58277;47.316;18.908;2023-04-27T02:46:25;4.41;66.10
70708;SHT30;58277;47.316;18.908;2023-04-27T02:48:48;4.34;66.09
70708;SHT30;58277;47.316;18.908;2023-04-27T02:51:11;4.28;66.34
70708;SHT30;58277;47.316;18.908;2023-04-27T02:53:34;4.29;66.43
70708;SHT30;58277;47.316;18.908;2023-04-27T02:55:57;4.33;66.27
70708;SHT30;58277;47.316;18.908;2023-04-27T02:58:20;4.34;66.36
70708;SHT30;58277;47.316;18.908;2023-04-27T03:00:44;4.30;66.45
70708;SHT30;58277;47.316;18.908;2023-04-27T03:03:07;4.30;66.72
70708;SHT30;58277;47.316;18.908;2023-04-27T03:05:30;4.22;66.27
70708;SHT30;58277;47.316;18.908;2023-04-27T03:08:09;4.26;66.38
70708;SHT30;58277;47.316;18.908;2023-04-27T03:10:32;4.24;66.75
70708;SHT30;58277;47.316;18.908;2023-04-27T03:12:55;4.20;66.69
70708;SHT30;58277;47.316;18.908;2023-04-27T03:15:18;4.24;66.43
70708;SHT30;58277;47.316;18.908;2023-04-27T03:17:41;4.20;67.30
70708;SHT30;58277;47.316;18.908;2023-04-27T03:20:04;4.22;67.22
70708;SHT30;58277;47.316;18.908;2023-04-27T03:22:31;4.16;67.66
70708;SHT30;58277;47.316;18.908;2023-04-27T03:24:53;4.16;67.05
70708;SHT30;58277;47.316;18.908;2023-04-27T03:27:16;4.14;67.38
70708;SHT30;58277;47.316;18.908;2023-04-27T03:29:39;4.12;68.12
70708;SHT30;58277;47.316;18.908;2023-04-27T03:32:02;4.10;68.03
70708;SHT30;58277;47.316;18.908;2023-04-27T03:34:29;4.17;67.31
70708;SHT30;58277;47.316;18.908;2023-04-27T03:37:12;4.19;67.37
70708;SHT30;58277;47.316;18.908;2023-04-27T03:39:55;4.19;67.83
70708;SHT30;58277;47.316;18.908;2023-04-27T03:42:18;4.20;67.87
70708;SHT30;58277;47.316;18.908;2023-04-27T03:44:41;4.24;67.06
70708;SHT30;58277;47.316;18.908;2023-04-27T03:47:04;4.20;67.56
70708;SHT30;58277;47.316;18.908;2023-04-27T03:49:34;4.30;67.41
70708;SHT30;58277;47.316;18.908;2023-04-27T03:51:57;4.34;67.29
70708;SHT30;58277;47.316;18.908;2023-04-27T03:54:20;4.39;67.29
70708;SHT30;58277;47.316;18.908;2023-04-27T03:56:43;4.51;66.64
70708;SHT30;58277;47.316;18.908;2023-04-27T03:59:07;4.53;67.46
70708;SHT30;58277;47.316;18.908;2023-04-27T04:01:31;4.58;67.01
70708;SHT30;58277;47.316;18.908;2023-04-27T04:03:55;4.67;66.28
70708;SHT30;58277;47.316;18.908;2023-04-27T04:06:18;4.84;65.98
70708;SHT30;58277;47.316;18.908;2023-04-27T04:08:41;4.88;66.02
70708;SHT30;58277;47.316;18.908;2023-04-27T04:11:04;5.08;65.92
70708;SHT30;58277;47.316;18.908;2023-04-27T04:13:29;5.73;63.93
70708;SHT30;58277;47.316;18.908;2023-04-27T04:16:02;6.25;62.21
70708;SHT30;58277;47.316;18.908;2023-04-27T04:18:25;6.77;60.61
70708;SHT30;58277;47.316;18.908;2023-04-27T04:20:48;7.53;58.36
70708;SHT30;58277;47.316;18.908;2023-04-27T04:23:10;8.15;56.09
70708;SHT30;58277;47.316;18.908;2023-04-27T04:25:33;8.90;53.77
70708;SHT30;58277;47.316;18.908;2023-04-27T04:27:56;9.59;51.68
70708;SHT30;58277;47.316;18.908;2023-04-27T04:30:19;10.53;49.46
70708;SHT30;58277;47.316;18.908;2023-04-27T04:32:42;11.65;46.38
70708;SHT30;58277;47.316;18.908;2023-04-27T04:35:06;12.72;43.93
70708;SHT30;58277;47.316;18.908;2023-04-27T04:37:32;13.68;42.16
70708;SHT30;58277;47.316;18.908;2023-04-27T04:39:56;14.11;40.39
70708;SHT30;58277;47.316;18.908;2023-04-27T04:42:19;14.01;40.53
70708;SHT30;58277;47.316;18.908;2023-04-27T04:44:42;13.20;41.91
70708;SHT30;58277;47.316;18.908;2023-04-27T04:47:06;12.45;44.21
70708;SHT30;58277;47.316;18.908;2023-04-27T04:49:29;12.02;45.03
70708;SHT30;58277;47.316;18.908;2023-04-27T04:51:52;11.59;46.18
70708;SHT30;58277;47.316;18.908;2023-04-27T04:54:15;11.00;47.19
70708;SHT30;58277;47.316;18.908;2023-04-27T04:56:38;10.61;49.05
70708;SHT30;58277;47.316;18.908;2023-04-27T04:59:01;10.22;50.49
70708;SHT30;58277;47.316;18.908;2023-04-27T05:01:26;10.07;50.76
70708;SHT30;58277;47.316;18.908;2023-04-27T05:03:48;9.87;52.15
70708;SHT30;58277;47.316;18.908;2023-04-27T05:06:11;9.49;53.31
70708;SHT30;58277;47.316;18.908;2023-04-27T05:08:34;9.45;53.56
70708;SHT30;58277;47.316;18.908;2023-04-27T05:10:57;9.50;53.15
70708;SHT30;58277;47.316;18.908;2023-04-27T05:13:20;9.53;53.63
70708;SHT30;58277;47.316;18.908;2023-04-27T05:15:43;9.46;52.97
70708;SHT30;58277;47.316;18.908;2023-04-27T05:18:08;9.66;53.76
70708;SHT30;58277;47.316;18.908;2023-04-27T05:20:33;9.84;52.80
70708;SHT30;58277;47.316;18.908;2023-04-27T05:22:56;10.11;53.12
70708;SHT30;58277;47.316;18.908;2023-04-27T05:25:19;10.28;52.19
70708;SHT30;58277;47.316;18.908;2023-04-27T05:27:42;11.42;50.02
70708;SHT30;58277;47.316;18.908;2023-04-27T05:30:05;12.88;46.61
70708;SHT30;58277;47.316;18.908;2023-04-27T05:32:29;14.05;43.46
70708;SHT30;58277;47.316;18.908;2023-04-27T05:34:52;14.99;40.13
70708;SHT30;58277;47.316;18.908;2023-04-27T05:37:15;15.50;38.98
70708;SHT30;58277;47.316;18.908;2023-04-27T05:39:38;16.02;38.49
70708;SHT30;58277;47.316;18.908;2023-04-27T05:42:00;16.75;36.86
70708;SHT30;58277;47.316;18.908;2023-04-27T05:44:24;16.87;36.26
70708;SHT30;58277;47.316;18.908;2023-04-27T05:46:49;16.70;37.10
70708;SHT30;58277;47.316;18.908;2023-04-27T05:49:12;16.62;36.02
70708;SHT30;58277;47.316;18.908;2023-04-27T05:51:36;16.86;36.58
70708;SHT30;58277;47.316;18.908;2023-04-27T05:54:01;16.70;37.41
70708;SHT30;58277;47.316;18.908;2023-04-27T05:56:25;16.56;35.58
70708;SHT30;58277;47.316;18.908;2023-04-27T05:58:56;17.58;34.31
70708;SHT30;58277;47.316;18.908;2023-04-27T06:01:21;18.38;32.19
70708;SHT30;58277;47.316;18.908;2023-04-27T06:03:45;17.63;33.07
70708;SHT30;58277;47.316;18.908;2023-04-27T06:06:08;16.52;34.78
70708;SHT30;58277;47.316;18.908;2023-04-27T06:08:31;15.87;37.10
70708;SHT30;58277;47.316;18.908;2023-04-27T06:10:57;15.59;36.63
70708;SHT30;58277;47.316;18.908;2023-04-27T06:13:20;15.96;36.29
70708;SHT30;58277;47.316;18.908;2023-04-27T06:15:45;15.60;36.98
70708;SHT30;58277;47.316;18.908;2023-04-27T06:18:08;16.14;36.54
70708;SHT30;58277;47.316;18.908;2023-04-27T06:20:31;16.08;35.45
70708;SHT30;58277;47.316;18.908;2023-04-27T06:22:54;16.22;35.11
70708;SHT30;58277;47.316;18.908;2023-04-27T06:25:18;15.96;35.76
70708;SHT30;58277;47.316;18.908;2023-04-27T06:27:41;15.31;34.43
70708;SHT30;58277;47.316;18.908;2023-04-27T06:30:04;15.35;34.81
70708;SHT30;58277;47.316;18.908;2023-04-27T06:32:27;15.86;34.41
70708;SHT30;58277;47.316;18.908;2023-04-27T06:34:50;16.02;34.93
70708;SHT30;58277;47.316;18.908;2023-04-27T06:37:13;16.58;33.56
70708;SHT30;58277;47.316;18.908;2023-04-27T06:39:38;15.91;34.23
70708;SHT30;58277;47.316;18.908;2023-04-27T06:42:01;15.53;34.93
70708;SHT30;58277;47.316;18.908;2023-04-27T06:44:26;15.60;36.81
70708;SHT30;58277;47.316;18.908;2023-04-27T06:46:49;15.04;36.81
70708;SHT30;58277;47.316;18.908;2023-04-27T06:49:23;14.28;39.45
70708;SHT30;58277;47.316;18.908;2023-04-27T06:51:49;13.12;40.42
70708;SHT30;58277;47.316;18.908;2023-04-27T06:54:15;13.47;39.16
70708;SHT30;58277;47.316;18.908;2023-04-27T06:56:43;13.70;39.27
70708;SHT30;58277;47.316;18.908;2023-04-27T06:59:07;13.03;38.04
70708;SHT30;58277;47.316;18.908;2023-04-27T07:01:30;13.51;38.44
70708;SHT30;58277;47.316;18.908;2023-04-27T07:03:54;13.53;37.53
70708;SHT30;58277;47.316;18.908;2023-04-27T07:06:17;13.98;37.32
70708;SHT30;58277;47.316;18.908;2023-04-27T07:08:40;13.33;38.26
70708;SHT30;58277;47.316;18.908;2023-04-27T07:11:02;12.93;39.76
70708;SHT30;58277;47.316;18.908;2023-04-27T07:13:25;13.27;39.47
70708;SHT30;58277;47.316;18.908;2023-04-27T07:15:54;12.64;40.23
70708;SHT30;58277;47.316;18.908;2023-04-27T07:18:19;12.99;39.16
70708;SHT30;58277;47.316;18.908;2023-04-27T07:20:42;12.95;38.94
70708;SHT30;58277;47.316;18.908;2023-04-27T07:23:05;13.03;38.84
70708;SHT30;58277;47.316;18.908;2023-04-27T07:25:28;13.58;38.08
70708;SHT30;58277;47.316;18.908;2023-04-27T07:27:51;14.15;37.24
70708;SHT30;58277;47.316;18.908;2023-04-27T07:30:14;14.88;37.01
70708;SHT30;58277;47.316;18.908;2023-04-27T07:32:42;14.73;36.82
70708;SHT30;58277;47.316;18.908;2023-04-27T07:35:05;15.22;35.48
70708;SHT30;58277;47.316;18.908;2023-04-27T07:37:28;15.12;36.05
70708;SHT30;58277;47.316;18.908;2023-04-27T07:39:51;14.18;37.12
70708;SHT30;58277;47.316;18.908;2023-04-27T07:42:14;13.98;37.66
70708;SHT30;58277;47.316;18.908;2023-04-27T07:44:37;14.06;38.13
70708;SHT30;58277;47.316;18.908;2023-04-27T07:47:00;14.63;36.35
70708;SHT30;58277;47.316;18.908;2023-04-27T07:49:29;14.84;36.16
70708;SHT30;58277;47.316;18.908;2023-04-27T07:51:52;15.33;36.19
70708;SHT30;58277;47.316;18.908;2023-04-27T07:54:18;15.19;36.34
70708;SHT30;58277;47.316;18.908;2023-04-27T07:56:41;14.04;36.90
70708;SHT30;58277;47.316;18.908;2023-04-27T07:59:04;14.13;38.07
70708;SHT30;58277;47.316;18.908;2023-04-27T08:01:27;15.14;35.83
70708;SHT30;58277;47.316;18.908;2023-04-27T08:03:50;15.21;35.00
70708;SHT30;58277;47.316;18.908;2023-04-27T08:06:13;15.45;34.68
70708;SHT30;58277;47.316;18.908;2023-04-27T08:08:36;15.52;34.30
70708;SHT30;58277;47.316;18.908;2023-04-27T08:10:59;15.04;34.56
70708;SHT30;58277;47.316;18.908;2023-04-27T08:13:22;14.91;34.21
70708;SHT30;58277;47.316;18.908;2023-04-27T08:15:47;14.99;34.82
70708;SHT30;58277;47.316;18.908;2023-04-27T08:18:09;14.55;36.25
70708;SHT30;58277;47.316;18.908;2023-04-27T08:20:32;14.36;33.39
70708;SHT30;58277;47.316;18.908;2023-04-27T08:22:55;13.88;33.94
70708;SHT30;58277;47.316;18.908;2023-04-27T08:25:18;13.53;35.28
70708;SHT30;58277;47.316;18.908;2023-04-27T08:27:41;13.48;35.67
70708;SHT30;58277;47.316;18.908;2023-04-27T08:30:05;14.49;36.05
70708;SHT30;58277;47.316;18.908;2023-04-27T08:32:28;14.70;33.49
70708;SHT30;58277;47.316;18.908;2023-04-27T08:34:51;14.68;33.71
70708;SHT30;58277;47.316;18.908;2023-04-27T08:37:13;15.31;33.24
70708;SHT30;58277;47.316;18.908;2023-04-27T08:39:36;15.97;32.86
70708;SHT30;58277;47.316;18.908;2023-04-27T08:41:59;16.17;31.37
70708;SHT30;58277;47.316;18.908;2023-04-27T08:44:22;15.62;30.10
70708;SHT30;58277;47.316;18.908;2023-04-27T08:46:45;16.24;31.82
70708;SHT30;58277;47.316;18.908;2023-04-27T08:49:08;16.33;29.47
70708;SHT30;58277;47.316;18.908;2023-04-27T08:51:32;16.38;29.59
70708;SHT30;58277;47.316;18.908;2023-04-27T08:53:56;16.21;29.65
70708;SHT30;58277;47.316;18.908;2023-04-27T08:56:20;15.98;30.94
70708;SHT30;58277;47.316;18.908;2023-04-27T08:58:50;15.94;30.85
70708;SHT30;58277;47.316;18.908;2023-04-27T09:01:13;14.83;32.61
70708;SHT30;58277;47.316;18.908;2023-04-27T09:03:36;14.84;32.85
70708;SHT30;58277;47.316;18.908;2023-04-27T09:06:01;14.61;32.26
70708;SHT30;58277;47.316;18.908;2023-04-27T09:08:27;14.78;31.35
70708;SHT30;58277;47.316;18.908;2023-04-27T09:10:51;14.08;32.42
70708;SHT30;58277;47.316;18.908;2023-04-27T09:13:14;13.82;32.18
70708;SHT30;58277;47.316;18.908;2023-04-27T09:15:50;14.43;32.19
70708;SHT30;58277;47.316;18.908;2023-04-27T09:18:15;14.91;32.30
70708;SHT30;58277;47.316;18.908;2023-04-27T09:20:43;14.71;30.76
70708;SHT30;58277;47.316;18.908;2023-04-27T09:23:06;14.33;32.18
70708;SHT30;58277;47.316;18.908;2023-04-27T09:25:30;14.63;32.30
70708;SHT30;58277;47.316;18.908;2023-04-27T09:27:58;15.15;29.06
70708;SHT30;58277;47.316;18.908;2023-04-27T09:30:21;15.63;29.37
70708;SHT30;58277;47.316;18.908;2023-04-27T09:32:57;15.49;27.87
70708;SHT30;58277;47.316;18.908;2023-04-27T09:35:25;15.31;31.05
70708;SHT30;58277;47.316;18.908;2023-04-27T09:37:49;15.04;31.15
70708;SHT30;58277;47.316;18.908;2023-04-27T09:40:14;15.24;31.51
70708;SHT30;58277;47.316;18.908;2023-04-27T09:42:37;15.38;30.48
70708;SHT30;58277;47.316;18.908;2023-04-27T09:45:01;15.59;31.03
70708;SHT30;58277;47.316;18.908;2023-04-27T09:47:26;15.62;30.79
70708;SHT30;58277;47.316;18.908;2023-04-27T09:49:50;15.71;30.11
70708;SHT30;58277;47.316;18.908;2023-04-27T09:52:13;15.90;30.71
70708;SHT30;58277;47.316;18.908;2023-04-27T09:54:37;15.96;30.92
70708;SHT30;58277;47.316;18.908;2023-04-27T10:02:22;15.93;31.27
70708;SHT30;58277;47.316;18.908;2023-04-27T10:07:38;15.70;30.33
70708;SHT30;58277;47.316;18.908;2023-04-27T10:10:02;15.89;31.44
70708;SHT30;58277;47.316;18.908;2023-04-27T10:12:32;15.91;31.86
70708;SHT30;58277;47.316;18.908;2023-04-27T10:14:58;16.02;30.86
70708;SHT30;58277;47.316;18.908;2023-04-27T10:17:29;15.98;29.83
70708;SHT30;58277;47.316;18.908;2023-04-27T10:19:55;15.91;31.46
70708;SHT30;58277;47.316;18.908;2023-04-27T10:22:20;15.87;31.37
70708;SHT30;58277;47.316;18.908;2023-04-27T10:24:50;15.76;30.89
70708;SHT30;58277;47.316;18.908;2023-04-27T10:27:19;15.67;31.02
70708;SHT30;58277;47.316;18.908;2023-04-27T10:29:45;15.83;32.19
70708;SHT30;58277;47.316;18.908;2023-04-27T10:32:10;15.93;30.18
70708;SHT30;58277;47.316;18.908;2023-04-27T10:34:34;15.89;30.95
70708;SHT30;58277;47.316;18.908;2023-04-27T10:37:07;15.63;30.53
70708;SHT30;58277;47.316;18.908;2023-04-27T10:39:34;15.80;31.92
70708;SHT30;58277;47.316;18.908;2023-04-27T10:42:11;15.76;31.92
70708;SHT30;58277;47.316;18.908;2023-04-27T10:44:35;15.84;32.03
70708;SHT30;58277;47.316;18.908;2023-04-27T10:47:01;15.84;30.68
70708;SHT30;58277;47.316;18.908;2023-04-27T10:49:29;15.69;30.53
70708;SHT30;58277;47.316;18.908;2023-04-27T10:51:56;15.57;31.10
70708;SHT30;58277;47.316;18.908;2023-04-27T10:54:25;15.52;31.66
70708;SHT30;58277;47.316;18.908;2023-04-27T10:56:49;15.57;32.11
70708;SHT30;58277;47.316;18.908;2023-04-27T10:59:14;15.66;32.04
70708;SHT30;58277;47.316;18.908;2023-04-27T11:01:39;16.02;32.07
70708;SHT30;58277;47.316;18.908;2023-04-27T11:04:02;16.12;31.37
70708;SHT30;58277;47.316;18.908;2023-04-27T11:06:27;16.29;31.34
70708;SHT30;58277;47.316;18.908;2023-04-27T11:08:51;16.53;30.74
70708;SHT30;58277;47.316;18.908;2023-04-27T11:11:14;16.59;32.01
70708;SHT30;58277;47.316;18.908;2023-04-27T11:13:42;16.76;31.41
70708;SHT30;58277;47.316;18.908;2023-04-27T11:16:04;16.75;31.52
70708;SHT30;58277;47.316;18.908;2023-04-27T11:18:31;16.79;31.41
70708;SHT30;58277;47.316;18.908;2023-04-27T11:21:12;16.60;31.02
70708;SHT30;58277;47.316;18.908;2023-04-27T11:23:36;16.33;30.68
70708;SHT30;58277;47.316;18.908;2023-04-27T11:26:08;16.33;30.78
70708;SHT30;58277;47.316;18.908;2023-04-27T11:28:31;16.24;30.97
70708;SHT30;58277;47.316;18.908;2023-04-27T11:30:57;16.36;31.17
70708;SHT30;58277;47.316;18.908;2023-04-27T11:33:20;16.32;32.05
70708;SHT30;58277;47.316;18.908;2023-04-27T11:35:43;16.46;31.24
70708;SHT30;58277;47.316;18.908;2023-04-27T11:38:14;16.66;30.11
70708;SHT30;58277;47.316;18.908;2023-04-27T11:40:37;16.67;32.10
70708;SHT30;58277;47.316;18.908;2023-04-27T11:43:02;16.67;32.50
70708;SHT30;58277;47.316;18.908;2023-04-27T11:45:26;16.65;33.27
70708;SHT30;58277;47.316;18.908;2023-04-27T11:47:51;16.69;30.57
70708;SHT30;58277;47.316;18.908;2023-04-27T11:50:14;16.80;31.39
70708;SHT30;58277;47.316;18.908;2023-04-27T11:52:38;16.75;30.85
70708;SHT30;58277;47.316;18.908;2023-04-27T11:55:02;16.59;31.66
70708;SHT30;58277;47.316;18.908;2023-04-27T11:57:33;16.36;31.90
70708;SHT30;58277;47.316;18.908;2023-04-27T12:00:00;16.39;31.45
70708;SHT30;58277;47.316;18.908;2023-04-27T12:02:34;16.53;31.06
70708;SHT30;58277;47.316;18.908;2023-04-27T12:04:58;16.65;30.75
70708;SHT30;58277;47.316;18.908;2023-04-27T12:07:21;16.76;30.19
70708;SHT30;58277;47.316;18.908;2023-04-27T12:09:44;16.65;31.14
70708;SHT30;58277;47.316;18.908;2023-04-27T12:12:08;16.48;30.38
70708;SHT30;58277;47.316;18.908;2023-04-27T12:14:32;16.31;30.57
70708;SHT30;58277;47.316;18.908;2023-04-27T12:16:54;16.22;31.63
70708;SHT30;58277;47.316;18.908;2023-04-27T12:19:17;16.33;32.45
70708;SHT30;58277;47.316;18.908;2023-04-27T12:21:40;16.52;32.23
70708;SHT30;58277;47.316;18.908;2023-04-27T12:24:04;16.62;33.48
70708;SHT30;58277;47.316;18.908;2023-04-27T12:26:27;16.66;32.87
70708;SHT30;58277;47.316;18.908;2023-04-27T12:28:50;16.65;30.79
70708;SHT30;58277;47.316;18.908;2023-04-27T12:31:14;16.33;31.75
70708;SHT30;58277;47.316;18.908;2023-04-27T12:33:47;16.28;31.32
70708;SHT30;58277;47.316;18.908;2023-04-27T12:36:10;16.12;32.33
70708;SHT30;58277;47.316;18.908;2023-04-27T12:38:33;16.11;31.47
70708;SHT30;58277;47.316;18.908;2023-04-27T12:40:57;16.15;31.02
70708;SHT30;58277;47.316;18.908;2023-04-27T12:43:22;16.04;31.59
70708;SHT30;58277;47.316;18.908;2023-04-27T12:45:44;16.26;32.00
70708;SHT30;58277;47.316;18.908;2023-04-27T12:48:07;16.32;31.94
70708;SHT30;58277;47.316;18.908;2023-04-27T12:50:31;16.21;30.85
70708;SHT30;58277;47.316;18.908;2023-04-27T12:52:54;16.15;32.20
70708;SHT30;58277;47.316;18.908;2023-04-27T12:55:17;16.10;32.05
70708;SHT30;58277;47.316;18.908;2023-04-27T12:57:54;16.02;32.64
70708;SHT30;58277;47.316;18.908;2023-04-27T13:00:19;15.97;31.83
70708;SHT30;58277;47.316;18.908;2023-04-27T13:02:42;15.67;30.72
70708;SHT30;58277;47.316;18.908;2023-04-27T13:05:07;15.63;32.78
70708;SHT30;58277;47.316;18.908;2023-04-27T13:07:29;15.76;31.80
70708;SHT30;58277;47.316;18.908;2023-04-27T13:09:52;15.76;32.11
70708;SHT30;58277;47.316;18.908;2023-04-27T13:12:15;15.81;32.06
70708;SHT30;58277;47.316;18.908;2023-04-27T13:14:38;15.83;31.59
70708;SHT30;58277;47.316;18.908;2023-04-27T13:17:02;15.98;32.01
70708;SHT30;58277;47.316;18.908;2023-04-27T13:19:25;15.83;31.55
70708;SHT30;58277;47.316;18.908;2023-04-27T13:21:48;15.94;32.21
70708;SHT30;58277;47.316;18.908;2023-04-27T13:24:11;16.32;31.51
70708;SHT30;58277;47.316;18.908;2023-04-27T13:26:35;16.24;30.61
70708;SHT30;58277;47.316;18.908;2023-04-27T13:28:58;16.25;31.85
70708;SHT30;58277;47.316;18.908;2023-04-27T13:31:20;16.24;31.54
70708;SHT30;58277;47.316;18.908;2023-04-27T13:33:43;16.38;31.77
70708;SHT30;58277;47.316;18.908;2023-04-27T13:36:07;16.45;31.63
70708;SHT30;58277;47.316;18.908;2023-04-27T13:38:30;16.44;31.33
70708;SHT30;58277;47.316;18.908;2023-04-27T13:40:53;16.48;31.16
70708;SHT30;58277;47.316;18.908;2023-04-27T13:43:16;16.36;31.58
70708;SHT30;58277;47.316;18.908;2023-04-27T13:45:38;16.22;29.54
70708;SHT30;58277;47.316;18.908;2023-04-27T13:48:04;16.22;30.58
70708;SHT30;58277;47.316;18.908;2023-04-27T13:50:27;16.24;29.79
70708;SHT30;58277;47.316;18.908;2023-04-27T13:52:50;15.91;30.49
70708;SHT30;58277;47.316;18.908;2023-04-27T13:55:13;16.02;31.50
70708;SHT30;58277;47.316;18.908;2023-04-27T13:57:36;16.10;31.68
70708;SHT30;58277;47.316;18.908;2023-04-27T14:00:00;16.07;31.32
70708;SHT30;58277;47.316;18.908;2023-04-27T14:02:29;15.97;32.02
70708;SHT30;58277;47.316;18.908;2023-04-27T14:04:54;16.00;30.89
70708;SHT30;58277;47.316;18.908;2023-04-27T14:07:18;15.93;31.53
70708;SHT30;58277;47.316;18.908;2023-04-27T14:09:41;15.89;31.15
70708;SHT30;58277;47.316;18.908;2023-04-27T14:12:04;15.96;31.20
70708;SHT30;58277;47.316;18.908;2023-04-27T14:14:27;15.86;31.53
70708;SHT30;58277;47.316;18.908;2023-04-27T14:16:51;15.73;30.90
70708;SHT30;58277;47.316;18.908;2023-04-27T14:19:35;15.46;31.21
70708;SHT30;58277;47.316;18.908;2023-04-27T14:22:18;15.50;31.34
70708;SHT30;58277;47.316;18.908;2023-04-27T14:24:41;15.47;31.41
70708;SHT30;58277;47.316;18.908;2023-04-27T14:27:04;15.36;31.95
70708;SHT30;58277;47.316;18.908;2023-04-27T14:29:26;15.46;31.94
70708;SHT30;58277;47.316;18.908;2023-04-27T14:31:49;15.56;31.70
70708;SHT30;58277;47.316;18.908;2023-04-27T14:34:12;15.54;31.04
70708;SHT30;58277;47.316;18.908;2023-04-27T14:36:42;15.49;33.08
70708;SHT30;58277;47.316;18.908;2023-04-27T14:39:05;15.59;31.67
70708;SHT30;58277;47.316;18.908;2023-04-27T14:41:28;15.66;31.43
70708;SHT30;58277;47.316;18.908;2023-04-27T14:43:53;15.56;30.70
70708;SHT30;58277;47.316;18.908;2023-04-27T14:46:16;15.36;31.25
70708;SHT30;58277;47.316;18.908;2023-04-27T14:48:44;15.49;32.71
70708;SHT30;58277;47.316;18.908;2023-04-27T14:51:07;15.49;32.02
70708;SHT30;58277;47.316;18.908;2023-04-27T14:53:31;15.54;32.76
70708;SHT30;58277;47.316;18.908;2023-04-27T14:55:54;15.50;31.36
70708;SHT30;58277;47.316;18.908;2023-04-27T14:58:17;15.35;31.79
70708;SHT30;58277;47.316;18.908;2023-04-27T15:00:40;15.31;31.15
70708;SHT30;58277;47.316;18.908;2023-04-27T15:03:03;15.42;31.48
70708;SHT30;58277;47.316;18.908;2023-04-27T15:05:26;15.43;32.19
70708;SHT30;58277;47.316;18.908;2023-04-27T15:07:49;15.45;32.83
70708;SHT30;58277;47.316;18.908;2023-04-27T15:10:12;15.49;31.56